Terminal Aerodrome Forecast
Issued by NWS Tuscon, AZ

Home | Current Version | Previous Version | Text Only | Print | Product List | Glossary On
Versions: 1 2 3 4 5 6 7 8 9 10 11 12
000
FTUS45 KTWC 280527
TAFDUG
TAF
KDUG 280527Z 2806/2906 VRB04KT P6SM SKC
     FM281800 19008KT P6SM SKC
     FM282100 25014G22KT P6SM SKC
     FM290200 29008KT P6SM SKC
     FM290500 33006KT P6SM SKC=

USA.gov is the U.S. government's official web portal to all federal, state and local government web resources and services.